sensor_id;sensor_type;location;lat;lon;timestamp;temperature;humidity
34766;DHT22;20984;43.508;1.504;2022-11-04T00:01:46;10.60;99.90
34766;DHT22;20984;43.508;1.504;2022-11-04T00:04:13;10.60;99.90
34766;DHT22;20984;43.508;1.504;2022-11-04T00:06:40;10.70;99.90
34766;DHT22;20984;43.508;1.504;2022-11-04T00:09:08;10.80;99.90
34766;DHT22;20984;43.508;1.504;2022-11-04T00:11:34;10.90;99.90
34766;DHT22;20984;43.508;1.504;2022-11-04T00:14:19;10.90;99.90
34766;DHT22;20984;43.508;1.504;2022-11-04T00:16:45;11.00;99.90
34766;DHT22;20984;43.508;1.504;2022-11-04T00:19:29;11.00;99.90
34766;DHT22;20984;43.508;1.504;2022-11-04T00:22:15;11.10;99.90
34766;DHT22;20984;43.508;1.504;2022-11-04T00:25:00;11.10;99.90
34766;DHT22;20984;43.508;1.504;2022-11-04T00:27:44;11.20;99.90
34766;DHT22;20984;43.508;1.504;2022-11-04T00:30:28;11.20;99.90
34766;DHT22;20984;43.508;1.504;2022-11-04T00:32:54;11.20;99.90
34766;DHT22;20984;43.508;1.504;2022-11-04T00:35:38;11.30;99.90
34766;DHT22;20984;43.508;1.504;2022-11-04T00:38:04;11.30;99.90
34766;DHT22;20984;43.508;1.504;2022-11-04T00:40:30;11.30;99.90
34766;DHT22;20984;43.508;1.504;2022-11-04T00:42:56;11.20;99.90
34766;DHT22;20984;43.508;1.504;2022-11-04T00:45:21;11.30;99.90
34766;DHT22;20984;43.508;1.504;2022-11-04T00:47:47;11.40;99.90
34766;DHT22;20984;43.508;1.504;2022-11-04T00:50:13;11.40;99.90
34766;DHT22;20984;43.508;1.504;2022-11-04T00:52:39;11.50;99.90
34766;DHT22;20984;43.508;1.504;2022-11-04T00:55:05;11.50;99.90
34766;DHT22;20984;43.508;1.504;2022-11-04T00:57:31;11.60;99.90
34766;DHT22;20984;43.508;1.504;2022-11-04T00:59:57;11.60;99.90
34766;DHT22;20984;43.508;1.504;2022-11-04T01:02:22;11.70;99.90
34766;DHT22;20984;43.508;1.504;2022-11-04T01:04:48;11.80;99.90
34766;DHT22;20984;43.508;1.504;2022-11-04T01:07:14;11.80;99.90
34766;DHT22;20984;43.508;1.504;2022-11-04T01:09:40;11.80;99.90
34766;DHT22;20984;43.508;1.504;2022-11-04T01:12:06;11.80;99.90
34766;DHT22;20984;43.508;1.504;2022-11-04T01:14:31;11.70;99.90
34766;DHT22;20984;43.508;1.504;2022-11-04T01:16:57;11.60;99.90
34766;DHT22;20984;43.508;1.504;2022-11-04T01:19:23;11.60;99.90
34766;DHT22;20984;43.508;1.504;2022-11-04T01:21:50;11.40;99.90
34766;DHT22;20984;43.508;1.504;2022-11-04T01:24:16;11.40;99.90
34766;DHT22;20984;43.508;1.504;2022-11-04T01:26:42;11.20;99.90
34766;DHT22;20984;43.508;1.504;2022-11-04T01:29:08;11.00;99.90
34766;DHT22;20984;43.508;1.504;2022-11-04T01:31:34;11.00;99.90
34766;DHT22;20984;43.508;1.504;2022-11-04T01:34:00;11.00;99.90
34766;DHT22;20984;43.508;1.504;2022-11-04T01:36:26;10.90;99.90
34766;DHT22;20984;43.508;1.504;2022-11-04T01:38:54;10.90;99.90
34766;DHT22;20984;43.508;1.504;2022-11-04T01:41:27;10.80;99.90
34766;DHT22;20984;43.508;1.504;2022-11-04T01:44:02;10.80;99.90
34766;DHT22;20984;43.508;1.504;2022-11-04T01:46:41;10.80;99.90
34766;DHT22;20984;43.508;1.504;2022-11-04T01:51:42;10.80;99.90
34766;DHT22;20984;43.508;1.504;2022-11-04T01:54:10;10.90;99.90
34766;DHT22;20984;43.508;1.504;2022-11-04T01:56:37;10.90;99.90
34766;DHT22;20984;43.508;1.504;2022-11-04T01:59:07;11.10;99.90
34766;DHT22;20984;43.508;1.504;2022-11-04T02:01:36;11.20;99.90
34766;DHT22;20984;43.508;1.504;2022-11-04T02:04:02;11.40;99.90
34766;DHT22;20984;43.508;1.504;2022-11-04T02:06:48;11.50;99.90
34766;DHT22;20984;43.508;1.504;2022-11-04T02:09:16;11.60;99.90
34766;DHT22;20984;43.508;1.504;2022-11-04T02:11:42;11.60;99.90
34766;DHT22;20984;43.508;1.504;2022-11-04T02:14:27;11.50;99.90
34766;DHT22;20984;43.508;1.504;2022-11-04T02:19:52;11.30;99.90
34766;DHT22;20984;43.508;1.504;2022-11-04T02:22:46;11.30;99.90
34766;DHT22;20984;43.508;1.504;2022-11-04T02:41:10;11.10;99.90
34766;DHT22;20984;43.508;1.504;2022-11-04T02:51:31;11.00;99.90
34766;DHT22;20984;43.508;1.504;2022-11-04T02:54:32;10.90;99.90
34766;DHT22;20984;43.508;1.504;2022-11-04T02:57:01;10.90;99.90
34766;DHT22;20984;43.508;1.504;2022-11-04T02:59:30;10.90;99.90
34766;DHT22;20984;43.508;1.504;2022-11-04T03:02:00;10.90;99.90
34766;DHT22;20984;43.508;1.504;2022-11-04T03:04:30;11.00;99.90
34766;DHT22;20984;43.508;1.504;2022-11-04T03:06:59;11.00;99.90
34766;DHT22;20984;43.508;1.504;2022-11-04T03:09:28;11.00;99.90
34766;DHT22;20984;43.508;1.504;2022-11-04T03:12:03;11.10;99.90
34766;DHT22;20984;43.508;1.504;2022-11-04T03:14:41;11.10;99.90
34766;DHT22;20984;43.508;1.504;2022-11-04T03:17:16;11.10;99.90
34766;DHT22;20984;43.508;1.504;2022-11-04T03:19:52;11.20;99.90
34766;DHT22;20984;43.508;1.504;2022-11-04T03:22:22;11.20;99.90
34766;DHT22;20984;43.508;1.504;2022-11-04T03:24:50;11.30;99.90
34766;DHT22;20984;43.508;1.504;2022-11-04T03:27:34;11.40;99.90
34766;DHT22;20984;43.508;1.504;2022-11-04T03:30:12;11.30;99.90
34766;DHT22;20984;43.508;1.504;2022-11-04T03:35:21;11.40;99.90
34766;DHT22;20984;43.508;1.504;2022-11-04T03:37:47;11.50;99.90
34766;DHT22;20984;43.508;1.504;2022-11-04T03:40:15;11.50;99.90
34766;DHT22;20984;43.508;1.504;2022-11-04T03:42:47;11.50;99.90
34766;DHT22;20984;43.508;1.504;2022-11-04T03:45:15;11.50;99.90
34766;DHT22;20984;43.508;1.504;2022-11-04T03:47:41;11.40;99.90
34766;DHT22;20984;43.508;1.504;2022-11-04T03:50:12;11.40;99.90
34766;DHT22;20984;43.508;1.504;2022-11-04T03:52:41;11.50;99.90
34766;DHT22;20984;43.508;1.504;2022-11-04T03:55:08;11.50;99.90
34766;DHT22;20984;43.508;1.504;2022-11-04T03:57:55;11.50;99.90
34766;DHT22;20984;43.508;1.504;2022-11-04T04:00:22;11.60;99.90
34766;DHT22;20984;43.508;1.504;2022-11-04T04:03:14;11.60;99.90
34766;DHT22;20984;43.508;1.504;2022-11-04T04:05:50;11.60;99.90
34766;DHT22;20984;43.508;1.504;2022-11-04T04:18:57;11.20;99.90
34766;DHT22;20984;43.508;1.504;2022-11-04T04:21:31;11.00;99.90
34766;DHT22;20984;43.508;1.504;2022-11-04T04:24:01;10.90;99.90
34766;DHT22;20984;43.508;1.504;2022-11-04T04:26:47;10.80;99.90
34766;DHT22;20984;43.508;1.504;2022-11-04T04:29:33;10.70;99.90
34766;DHT22;20984;43.508;1.504;2022-11-04T04:32:02;10.60;99.90
34766;DHT22;20984;43.508;1.504;2022-11-04T04:34:30;10.60;99.90
34766;DHT22;20984;43.508;1.504;2022-11-04T04:37:06;10.60;99.90
34766;DHT22;20984;43.508;1.504;2022-11-04T04:39:38;10.60;99.90
34766;DHT22;20984;43.508;1.504;2022-11-04T04:42:23;10.60;99.90
34766;DHT22;20984;43.508;1.504;2022-11-04T04:45:08;10.70;99.90
34766;DHT22;20984;43.508;1.504;2022-11-04T04:47:43;10.70;99.90
34766;DHT22;20984;43.508;1.504;2022-11-04T04:50:13;10.60;99.90
34766;DHT22;20984;43.508;1.504;2022-11-04T04:52:43;10.70;99.90
34766;DHT22;20984;43.508;1.504;2022-11-04T04:55:10;10.60;99.90
34766;DHT22;20984;43.508;1.504;2022-11-04T04:57:36;10.70;99.90
34766;DHT22;20984;43.508;1.504;2022-11-04T05:00:04;10.70;99.90
34766;DHT22;20984;43.508;1.504;2022-11-04T05:02:30;10.70;99.90
34766;DHT22;20984;43.508;1.504;2022-11-04T05:04:56;10.70;99.90
34766;DHT22;20984;43.508;1.504;2022-11-04T05:07:24;10.70;99.90
34766;DHT22;20984;43.508;1.504;2022-11-04T05:09:50;10.70;99.90
34766;DHT22;20984;43.508;1.504;2022-11-04T05:12:16;10.70;99.90
34766;DHT22;20984;43.508;1.504;2022-11-04T05:14:42;10.80;99.90
34766;DHT22;20984;43.508;1.504;2022-11-04T05:17:08;10.80;99.90
34766;DHT22;20984;43.508;1.504;2022-11-04T05:19:33;10.90;99.90
34766;DHT22;20984;43.508;1.504;2022-11-04T05:21:59;10.90;99.90
34766;DHT22;20984;43.508;1.504;2022-11-04T05:24:25;10.90;99.90
34766;DHT22;20984;43.508;1.504;2022-11-04T05:26:51;10.90;99.90
34766;DHT22;20984;43.508;1.504;2022-11-04T05:29:17;11.00;99.90
34766;DHT22;20984;43.508;1.504;2022-11-04T05:31:43;11.00;99.90
34766;DHT22;20984;43.508;1.504;2022-11-04T05:34:10;10.90;99.90
34766;DHT22;20984;43.508;1.504;2022-11-04T05:36:36;10.90;99.90
34766;DHT22;20984;43.508;1.504;2022-11-04T05:39:03;11.00;99.90
34766;DHT22;20984;43.508;1.504;2022-11-04T05:41:29;11.00;99.90
34766;DHT22;20984;43.508;1.504;2022-11-04T05:43:56;11.00;99.90
34766;DHT22;20984;43.508;1.504;2022-11-04T05:46:23;11.00;99.90
34766;DHT22;20984;43.508;1.504;2022-11-04T05:48:49;11.10;99.90
34766;DHT22;20984;43.508;1.504;2022-11-04T05:51:17;11.20;99.90
34766;DHT22;20984;43.508;1.504;2022-11-04T05:53:43;11.30;99.90
34766;DHT22;20984;43.508;1.504;2022-11-04T05:56:09;11.30;99.90
34766;DHT22;20984;43.508;1.504;2022-11-04T05:58:35;11.30;99.90
34766;DHT22;20984;43.508;1.504;2022-11-04T06:01:32;11.30;99.90
34766;DHT22;20984;43.508;1.504;2022-11-04T06:03:59;11.10;99.90
34766;DHT22;20984;43.508;1.504;2022-11-04T06:06:27;10.90;99.90
34766;DHT22;20984;43.508;1.504;2022-11-04T06:08:54;10.70;99.90
34766;DHT22;20984;43.508;1.504;2022-11-04T06:11:21;10.60;99.90
34766;DHT22;20984;43.508;1.504;2022-11-04T06:13:47;10.60;99.90
34766;DHT22;20984;43.508;1.504;2022-11-04T06:16:13;10.60;99.90
34766;DHT22;20984;43.508;1.504;2022-11-04T06:18:41;10.70;99.90
34766;DHT22;20984;43.508;1.504;2022-11-04T06:23:35;10.70;99.90
34766;DHT22;20984;43.508;1.504;2022-11-04T06:26:01;10.70;99.90
34766;DHT22;20984;43.508;1.504;2022-11-04T06:28:27;10.70;99.90
34766;DHT22;20984;43.508;1.504;2022-11-04T06:30:53;10.70;99.90
34766;DHT22;20984;43.508;1.504;2022-11-04T06:33:18;10.80;99.90
34766;DHT22;20984;43.508;1.504;2022-11-04T06:35:44;10.90;99.90
34766;DHT22;20984;43.508;1.504;2022-11-04T06:38:10;10.90;99.90
34766;DHT22;20984;43.508;1.504;2022-11-04T06:40:36;11.00;99.90
34766;DHT22;20984;43.508;1.504;2022-11-04T06:43:02;11.00;99.90
34766;DHT22;20984;43.508;1.504;2022-11-04T06:45:27;11.00;99.90
34766;DHT22;20984;43.508;1.504;2022-11-04T06:47:53;11.00;99.90
34766;DHT22;20984;43.508;1.504;2022-11-04T06:50:19;11.10;99.90
34766;DHT22;20984;43.508;1.504;2022-11-04T06:52:45;11.10;99.90
34766;DHT22;20984;43.508;1.504;2022-11-04T06:55:10;11.00;99.90
34766;DHT22;20984;43.508;1.504;2022-11-04T06:57:36;11.00;99.90
34766;DHT22;20984;43.508;1.504;2022-11-04T07:00:03;11.00;99.90
34766;DHT22;20984;43.508;1.504;2022-11-04T07:02:29;11.00;99.90
34766;DHT22;20984;43.508;1.504;2022-11-04T07:04:54;11.10;99.90
34766;DHT22;20984;43.508;1.504;2022-11-04T07:07:20;11.10;99.90
34766;DHT22;20984;43.508;1.504;2022-11-04T07:09:46;11.10;99.90
34766;DHT22;20984;43.508;1.504;2022-11-04T07:12:12;11.10;99.90
34766;DHT22;20984;43.508;1.504;2022-11-04T07:14:38;11.10;99.90
34766;DHT22;20984;43.508;1.504;2022-11-04T07:17:03;11.20;99.90
34766;DHT22;20984;43.508;1.504;2022-11-04T07:19:29;11.00;99.90
34766;DHT22;20984;43.508;1.504;2022-11-04T07:21:56;10.70;99.90
34766;DHT22;20984;43.508;1.504;2022-11-04T07:24:22;10.40;99.90
34766;DHT22;20984;43.508;1.504;2022-11-04T07:26:48;10.20;99.90
34766;DHT22;20984;43.508;1.504;2022-11-04T07:29:14;10.00;99.90
34766;DHT22;20984;43.508;1.504;2022-11-04T07:31:39;9.90;99.90
34766;DHT22;20984;43.508;1.504;2022-11-04T07:34:05;9.70;99.90
34766;DHT22;20984;43.508;1.504;2022-11-04T07:36:31;9.60;99.90
34766;DHT22;20984;43.508;1.504;2022-11-04T07:38:57;9.50;99.90
34766;DHT22;20984;43.508;1.504;2022-11-04T07:41:23;9.40;99.90
34766;DHT22;20984;43.508;1.504;2022-11-04T07:43:50;9.40;99.90
34766;DHT22;20984;43.508;1.504;2022-11-04T07:46:17;9.40;99.90
34766;DHT22;20984;43.508;1.504;2022-11-04T07:48:43;9.40;99.90
34766;DHT22;20984;43.508;1.504;2022-11-04T07:51:14;9.40;99.90
34766;DHT22;20984;43.508;1.504;2022-11-04T07:53:41;9.30;99.90
34766;DHT22;20984;43.508;1.504;2022-11-04T07:56:09;9.20;99.90
34766;DHT22;20984;43.508;1.504;2022-11-04T07:58:39;9.10;99.90
34766;DHT22;20984;43.508;1.504;2022-11-04T08:01:08;9.10;99.90
34766;DHT22;20984;43.508;1.504;2022-11-04T08:03:35;9.00;99.90
34766;DHT22;20984;43.508;1.504;2022-11-04T08:06:03;8.80;99.90
34766;DHT22;20984;43.508;1.504;2022-11-04T08:08:29;8.80;99.90
34766;DHT22;20984;43.508;1.504;2022-11-04T08:11:00;8.70;99.90
34766;DHT22;20984;43.508;1.504;2022-11-04T08:13:27;8.60;99.90
34766;DHT22;20984;43.508;1.504;2022-11-04T08:15:53;8.60;99.90
34766;DHT22;20984;43.508;1.504;2022-11-04T08:18:19;8.60;99.90
34766;DHT22;20984;43.508;1.504;2022-11-04T08:20:49;8.60;99.90
34766;DHT22;20984;43.508;1.504;2022-11-04T08:23:16;8.60;99.90
34766;DHT22;20984;43.508;1.504;2022-11-04T08:25:42;8.70;99.90
34766;DHT22;20984;43.508;1.504;2022-11-04T08:28:08;8.70;99.90
34766;DHT22;20984;43.508;1.504;2022-11-04T08:30:38;8.80;99.90
34766;DHT22;20984;43.508;1.504;2022-11-04T08:33:04;8.80;99.90
34766;DHT22;20984;43.508;1.504;2022-11-04T08:35:30;8.90;99.90
34766;DHT22;20984;43.508;1.504;2022-11-04T08:37:56;8.90;99.90
34766;DHT22;20984;43.508;1.504;2022-11-04T08:40:22;9.00;99.90
34766;DHT22;20984;43.508;1.504;2022-11-04T08:42:49;9.00;99.90
34766;DHT22;20984;43.508;1.504;2022-11-04T08:45:14;9.10;99.90
34766;DHT22;20984;43.508;1.504;2022-11-04T08:47:41;9.20;99.90
34766;DHT22;20984;43.508;1.504;2022-11-04T08:50:07;9.20;99.90
34766;DHT22;20984;43.508;1.504;2022-11-04T08:52:33;9.30;99.90
34766;DHT22;20984;43.508;1.504;2022-11-04T08:54:59;9.30;99.90
34766;DHT22;20984;43.508;1.504;2022-11-04T08:57:24;9.40;99.90
34766;DHT22;20984;43.508;1.504;2022-11-04T08:59:50;9.40;99.90
34766;DHT22;20984;43.508;1.504;2022-11-04T09:02:16;9.40;99.90
34766;DHT22;20984;43.508;1.504;2022-11-04T09:04:42;9.50;99.90
34766;DHT22;20984;43.508;1.504;2022-11-04T09:07:08;9.50;99.90
34766;DHT22;20984;43.508;1.504;2022-11-04T09:09:34;9.50;99.90
34766;DHT22;20984;43.508;1.504;2022-11-04T09:11:59;9.50;99.90
34766;DHT22;20984;43.508;1.504;2022-11-04T09:14:25;9.40;99.90
34766;DHT22;20984;43.508;1.504;2022-11-04T09:16:51;9.30;99.90
34766;DHT22;20984;43.508;1.504;2022-11-04T09:19:18;9.20;99.90
34766;DHT22;20984;43.508;1.504;2022-11-04T09:21:44;9.20;99.90
34766;DHT22;20984;43.508;1.504;2022-11-04T09:24:10;9.30;99.90
34766;DHT22;20984;43.508;1.504;2022-11-04T09:26:36;9.30;99.90
34766;DHT22;20984;43.508;1.504;2022-11-04T09:29:02;9.50;99.90
34766;DHT22;20984;43.508;1.504;2022-11-04T09:31:29;9.70;99.90
34766;DHT22;20984;43.508;1.504;2022-11-04T09:33:55;9.90;99.90
34766;DHT22;20984;43.508;1.504;2022-11-04T09:36:22;10.00;99.90
34766;DHT22;20984;43.508;1.504;2022-11-04T09:38:48;10.00;99.90
34766;DHT22;20984;43.508;1.504;2022-11-04T09:41:24;10.00;99.90
34766;DHT22;20984;43.508;1.504;2022-11-04T09:44:03;10.10;99.90
34766;DHT22;20984;43.508;1.504;2022-11-04T09:46:32;10.10;99.90
34766;DHT22;20984;43.508;1.504;2022-11-04T09:49:02;10.20;99.90
34766;DHT22;20984;43.508;1.504;2022-11-04T09:51:28;10.30;99.90
34766;DHT22;20984;43.508;1.504;2022-11-04T09:53:57;10.20;99.90
34766;DHT22;20984;43.508;1.504;2022-11-04T09:56:29;10.20;99.90
34766;DHT22;20984;43.508;1.504;2022-11-04T09:58:57;10.10;99.90
34766;DHT22;20984;43.508;1.504;2022-11-04T10:01:37;10.10;99.90
34766;DHT22;20984;43.508;1.504;2022-11-04T10:12:52;10.20;99.90
34766;DHT22;20984;43.508;1.504;2022-11-04T10:24:22;10.60;99.90
34766;DHT22;20984;43.508;1.504;2022-11-04T10:27:03;10.70;99.90
34766;DHT22;20984;43.508;1.504;2022-11-04T10:29:57;10.80;99.90
34766;DHT22;20984;43.508;1.504;2022-11-04T10:32:39;11.00;99.90
34766;DHT22;20984;43.508;1.504;2022-11-04T10:35:57;11.20;99.90
34766;DHT22;20984;43.508;1.504;2022-11-04T10:38:20;11.30;99.90
34766;DHT22;20984;43.508;1.504;2022-11-04T10:40:50;11.30;99.90
34766;DHT22;20984;43.508;1.504;2022-11-04T10:43:40;11.50;99.90
34766;DHT22;20984;43.508;1.504;2022-11-04T10:48:57;11.80;99.90
34766;DHT22;20984;43.508;1.504;2022-11-04T10:51:25;11.80;99.90
34766;DHT22;20984;43.508;1.504;2022-11-04T10:53:54;12.00;99.90
34766;DHT22;20984;43.508;1.504;2022-11-04T10:56:27;12.10;99.90
34766;DHT22;20984;43.508;1.504;2022-11-04T10:58:56;12.10;99.90
34766;DHT22;20984;43.508;1.504;2022-11-04T11:01:33;12.10;99.90
34766;DHT22;20984;43.508;1.504;2022-11-04T11:04:00;12.10;99.90
34766;DHT22;20984;43.508;1.504;2022-11-04T11:06:31;12.00;99.90
34766;DHT22;20984;43.508;1.504;2022-11-04T11:17:18;12.00;99.90
34766;DHT22;20984;43.508;1.504;2022-11-04T11:22:39;12.10;99.90
34766;DHT22;20984;43.508;1.504;2022-11-04T11:25:30;12.10;99.90
34766;DHT22;20984;43.508;1.504;2022-11-04T11:28:02;12.00;99.90
34766;DHT22;20984;43.508;1.504;2022-11-04T11:30:30;11.90;99.90
34766;DHT22;20984;43.508;1.504;2022-11-04T11:35:43;12.20;99.90
34766;DHT22;20984;43.508;1.504;2022-11-04T11:38:26;12.40;99.90
34766;DHT22;20984;43.508;1.504;2022-11-04T11:41:02;12.50;99.90
34766;DHT22;20984;43.508;1.504;2022-11-04T11:43:32;12.60;99.90
34766;DHT22;20984;43.508;1.504;2022-11-04T11:45:58;12.70;99.90
34766;DHT22;20984;43.508;1.504;2022-11-04T11:50:58;12.80;99.90
34766;DHT22;20984;43.508;1.504;2022-11-04T11:53:26;12.80;99.90
34766;DHT22;20984;43.508;1.504;2022-11-04T11:58:45;12.80;99.90
34766;DHT22;20984;43.508;1.504;2022-11-04T12:01:28;12.70;99.90
34766;DHT22;20984;43.508;1.504;2022-11-04T12:03:57;12.70;99.90
34766;DHT22;20984;43.508;1.504;2022-11-04T12:09:16;12.80;99.90
34766;DHT22;20984;43.508;1.504;2022-11-04T12:12:06;12.70;99.90
34766;DHT22;20984;43.508;1.504;2022-11-04T12:14:50;12.30;99.90
34766;DHT22;20984;43.508;1.504;2022-11-04T12:23:06;11.80;99.90
34766;DHT22;20984;43.508;1.504;2022-11-04T12:25:45;11.60;99.90
34766;DHT22;20984;43.508;1.504;2022-11-04T12:34:16;11.50;99.90
34766;DHT22;20984;43.508;1.504;2022-11-04T12:45:17;11.80;99.90
34766;DHT22;20984;43.508;1.504;2022-11-04T12:47:46;11.70;99.90
34766;DHT22;20984;43.508;1.504;2022-11-04T12:50:43;11.80;99.90
34766;DHT22;20984;43.508;1.504;2022-11-04T12:53:28;11.90;99.90
34766;DHT22;20984;43.508;1.504;2022-11-04T12:56:17;12.10;99.90
34766;DHT22;20984;43.508;1.504;2022-11-04T12:59:26;12.40;99.90
34766;DHT22;20984;43.508;1.504;2022-11-04T13:02:35;12.60;99.90
34766;DHT22;20984;43.508;1.504;2022-11-04T13:07:28;12.80;99.90
34766;DHT22;20984;43.508;1.504;2022-11-04T13:09:58;12.90;99.90
34766;DHT22;20984;43.508;1.504;2022-11-04T13:12:30;12.90;99.90
34766;DHT22;20984;43.508;1.504;2022-11-04T13:15:12;12.80;99.90
34766;DHT22;20984;43.508;1.504;2022-11-04T13:17:39;12.60;99.90
34766;DHT22;20984;43.508;1.504;2022-11-04T13:22:44;12.50;99.90
34766;DHT22;20984;43.508;1.504;2022-11-04T13:25:27;12.60;99.90
34766;DHT22;20984;43.508;1.504;2022-11-04T13:27:54;12.70;99.90
34766;DHT22;20984;43.508;1.504;2022-11-04T13:30:42;12.80;99.90
34766;DHT22;20984;43.508;1.504;2022-11-04T13:38:55;13.00;99.90
34766;DHT22;20984;43.508;1.504;2022-11-04T13:44:02;13.00;99.90
34766;DHT22;20984;43.508;1.504;2022-11-04T13:46:32;13.00;99.90
34766;DHT22;20984;43.508;1.504;2022-11-04T13:49:05;13.00;99.90
34766;DHT22;20984;43.508;1.504;2022-11-04T13:52:07;13.00;99.90
34766;DHT22;20984;43.508;1.504;2022-11-04T13:54:53;12.80;99.90
34766;DHT22;20984;43.508;1.504;2022-11-04T13:57:21;12.70;99.90
34766;DHT22;20984;43.508;1.504;2022-11-04T14:02:48;12.70;99.90
34766;DHT22;20984;43.508;1.504;2022-11-04T14:18:31;12.50;99.90
34766;DHT22;20984;43.508;1.504;2022-11-04T14:21:21;12.50;99.90
34766;DHT22;20984;43.508;1.504;2022-11-04T14:23:56;12.50;99.90
34766;DHT22;20984;43.508;1.504;2022-11-04T14:26:26;12.50;99.90
34766;DHT22;20984;43.508;1.504;2022-11-04T14:29:06;12.60;99.90
34766;DHT22;20984;43.508;1.504;2022-11-04T14:31:38;12.60;99.90
34766;DHT22;20984;43.508;1.504;2022-11-04T14:34:05;12.70;99.90
34766;DHT22;20984;43.508;1.504;2022-11-04T14:36:35;12.80;99.90
34766;DHT22;20984;43.508;1.504;2022-11-04T14:39:03;12.80;99.90
34766;DHT22;20984;43.508;1.504;2022-11-04T14:44:12;13.00;99.90
34766;DHT22;20984;43.508;1.504;2022-11-04T14:46:48;13.10;99.90
34766;DHT22;20984;43.508;1.504;2022-11-04T14:49:43;13.20;99.90
34766;DHT22;20984;43.508;1.504;2022-11-04T14:52:20;13.30;99.90
34766;DHT22;20984;43.508;1.504;2022-11-04T14:54:47;13.50;99.90
34766;DHT22;20984;43.508;1.504;2022-11-04T14:57:21;13.50;99.90
34766;DHT22;20984;43.508;1.504;2022-11-04T14:59:47;13.60;99.90
34766;DHT22;20984;43.508;1.504;2022-11-04T15:02:28;13.70;99.90
34766;DHT22;20984;43.508;1.504;2022-11-04T15:05:00;13.70;99.90
34766;DHT22;20984;43.508;1.504;2022-11-04T15:07:36;13.70;99.90
34766;DHT22;20984;43.508;1.504;2022-11-04T15:10:19;13.70;99.90
34766;DHT22;20984;43.508;1.504;2022-11-04T15:12:45;13.70;99.90
34766;DHT22;20984;43.508;1.504;2022-11-04T15:15:48;13.80;99.90
34766;DHT22;20984;43.508;1.504;2022-11-04T15:18:24;13.80;99.90
34766;DHT22;20984;43.508;1.504;2022-11-04T15:20:59;13.80;99.90
34766;DHT22;20984;43.508;1.504;2022-11-04T15:23:30;13.90;99.90
34766;DHT22;20984;43.508;1.504;2022-11-04T15:25:57;13.80;99.90
34766;DHT22;20984;43.508;1.504;2022-11-04T15:28:34;13.70;99.90
34766;DHT22;20984;43.508;1.504;2022-11-04T15:33:41;13.60;99.90
34766;DHT22;20984;43.508;1.504;2022-11-04T15:36:17;13.60;99.90
34766;DHT22;20984;43.508;1.504;2022-11-04T15:39:11;13.60;99.90
34766;DHT22;20984;43.508;1.504;2022-11-04T15:41:40;13.60;99.90
34766;DHT22;20984;43.508;1.504;2022-11-04T15:44:27;13.60;99.90
34766;DHT22;20984;43.508;1.504;2022-11-04T15:46:56;13.60;99.90
34766;DHT22;20984;43.508;1.504;2022-11-04T15:49:27;13.60;99.90
34766;DHT22;20984;43.508;1.504;2022-11-04T15:52:10;13.60;99.90
34766;DHT22;20984;43.508;1.504;2022-11-04T15:54:40;13.50;99.90
34766;DHT22;20984;43.508;1.504;2022-11-04T16:00:18;13.40;99.90
34766;DHT22;20984;43.508;1.504;2022-11-04T16:03:13;13.40;99.90
34766;DHT22;20984;43.508;1.504;2022-11-04T16:05:37;13.30;99.90
34766;DHT22;20984;43.508;1.504;2022-11-04T16:08:33;13.20;99.90
34766;DHT22;20984;43.508;1.504;2022-11-04T16:11:09;13.10;99.90
34766;DHT22;20984;43.508;1.504;2022-11-04T16:13:36;13.10;99.90
34766;DHT22;20984;43.508;1.504;2022-11-04T16:18:40;13.00;99.90
34766;DHT22;20984;43.508;1.504;2022-11-04T16:21:32;13.00;99.90
34766;DHT22;20984;43.508;1.504;2022-11-04T16:24:22;13.00;99.90
34766;DHT22;20984;43.508;1.504;2022-11-04T16:26:54;13.00;99.90
34766;DHT22;20984;43.508;1.504;2022-11-04T16:29:24;13.00;99.90
34766;DHT22;20984;43.508;1.504;2022-11-04T16:32:22;13.00;99.90
34766;DHT22;20984;43.508;1.504;2022-11-04T16:34:51;13.00;99.90
34766;DHT22;20984;43.508;1.504;2022-11-04T16:37:17;13.00;99.90
34766;DHT22;20984;43.508;1.504;2022-11-04T16:39:44;12.90;99.90
34766;DHT22;20984;43.508;1.504;2022-11-04T16:42:13;13.00;99.90
34766;DHT22;20984;43.508;1.504;2022-11-04T16:44:49;13.00;99.90
34766;DHT22;20984;43.508;1.504;2022-11-04T16:47:16;12.90;99.90
34766;DHT22;20984;43.508;1.504;2022-11-04T16:49:43;12.80;99.90
34766;DHT22;20984;43.508;1.504;2022-11-04T16:52:16;12.80;99.90
34766;DHT22;20984;43.508;1.504;2022-11-04T16:54:46;12.80;99.90
34766;DHT22;20984;43.508;1.504;2022-11-04T16:57:13;12.80;99.90
34766;DHT22;20984;43.508;1.504;2022-11-04T16:59:40;12.80;99.90
34766;DHT22;20984;43.508;1.504;2022-11-04T17:02:28;12.80;99.90
34766;DHT22;20984;43.508;1.504;2022-11-04T17:04:59;12.80;99.90
34766;DHT22;20984;43.508;1.504;2022-11-04T17:07:25;12.80;99.90
34766;DHT22;20984;43.508;1.504;2022-11-04T17:09:51;12.80;99.90
34766;DHT22;20984;43.508;1.504;2022-11-04T17:12:16;12.90;99.90
34766;DHT22;20984;43.508;1.504;2022-11-04T17:14:42;12.90;99.90
34766;DHT22;20984;43.508;1.504;2022-11-04T17:17:09;12.90;99.90
34766;DHT22;20984;43.508;1.504;2022-11-04T17:19:35;12.80;99.90
34766;DHT22;20984;43.508;1.504;2022-11-04T17:22:04;12.80;99.90
34766;DHT22;20984;43.508;1.504;2022-11-04T17:24:30;12.80;99.90
34766;DHT22;20984;43.508;1.504;2022-11-04T17:26:57;12.80;99.90
34766;DHT22;20984;43.508;1.504;2022-11-04T17:29:23;12.80;99.90
34766;DHT22;20984;43.508;1.504;2022-11-04T17:31:49;12.70;99.90
34766;DHT22;20984;43.508;1.504;2022-11-04T17:34:17;12.60;99.90
34766;DHT22;20984;43.508;1.504;2022-11-04T17:36:43;12.60;99.90
34766;DHT22;20984;43.508;1.504;2022-11-04T17:39:09;12.50;99.90
34766;DHT22;20984;43.508;1.504;2022-11-04T17:41:34;12.50;99.90
34766;DHT22;20984;43.508;1.504;2022-11-04T17:44:19;12.40;99.90
34766;DHT22;20984;43.508;1.504;2022-11-04T17:46:44;12.40;99.90
34766;DHT22;20984;43.508;1.504;2022-11-04T17:49:14;12.40;99.90
34766;DHT22;20984;43.508;1.504;2022-11-04T17:51:45;12.30;99.90
34766;DHT22;20984;43.508;1.504;2022-11-04T17:54:12;12.30;99.90
34766;DHT22;20984;43.508;1.504;2022-11-04T17:56:39;12.30;99.90
34766;DHT22;20984;43.508;1.504;2022-11-04T17:59:06;12.20;99.90
34766;DHT22;20984;43.508;1.504;2022-11-04T18:01:33;12.20;99.90
34766;DHT22;20984;43.508;1.504;2022-11-04T18:03:59;12.10;99.90
34766;DHT22;20984;43.508;1.504;2022-11-04T18:06:25;12.00;99.90
34766;DHT22;20984;43.508;1.504;2022-11-04T18:08:55;12.00;99.90
34766;DHT22;20984;43.508;1.504;2022-11-04T18:11:23;11.90;99.90
34766;DHT22;20984;43.508;1.504;2022-11-04T18:14:08;11.90;99.90
34766;DHT22;20984;43.508;1.504;2022-11-04T18:16:34;11.90;99.90
34766;DHT22;20984;43.508;1.504;2022-11-04T18:19:00;11.90;99.90
34766;DHT22;20984;43.508;1.504;2022-11-04T18:21:27;11.90;99.90
34766;DHT22;20984;43.508;1.504;2022-11-04T18:23:57;11.80;99.90
34766;DHT22;20984;43.508;1.504;2022-11-04T18:26:23;11.80;99.90